sensor_id;sensor_type;location;lat;lon;timestamp;temperature;humidity
43581;DHT22;29175;51.030;4.606;2022-07-09T00:01:42;20.10;98.50
43581;DHT22;29175;51.030;4.606;2022-07-09T00:04:09;20.10;98.70
43581;DHT22;29175;51.030;4.606;2022-07-09T00:06:38;20.00;98.70
43581;DHT22;29175;51.030;4.606;2022-07-09T00:09:10;19.90;98.80
43581;DHT22;29175;51.030;4.606;2022-07-09T00:11:36;19.90;99.00
43581;DHT22;29175;51.030;4.606;2022-07-09T00:14:02;19.80;99.20
43581;DHT22;29175;51.030;4.606;2022-07-09T00:16:29;19.80;99.20
43581;DHT22;29175;51.030;4.606;2022-07-09T00:18:56;19.80;99.30
43581;DHT22;29175;51.030;4.606;2022-07-09T00:21:22;19.80;99.30
43581;DHT22;29175;51.030;4.606;2022-07-09T00:23:48;19.80;99.40
43581;DHT22;29175;51.030;4.606;2022-07-09T00:26:15;19.70;99.30
43581;DHT22;29175;51.030;4.606;2022-07-09T00:28:44;19.70;99.40
43581;DHT22;29175;51.030;4.606;2022-07-09T00:31:11;19.70;99.40
43581;DHT22;29175;51.030;4.606;2022-07-09T00:33:37;19.70;99.50
43581;DHT22;29175;51.030;4.606;2022-07-09T00:36:04;19.60;99.80
43581;DHT22;29175;51.030;4.606;2022-07-09T00:38:30;19.50;99.90
43581;DHT22;29175;51.030;4.606;2022-07-09T00:40:55;19.50;99.90
43581;DHT22;29175;51.030;4.606;2022-07-09T00:43:23;19.50;99.90
43581;DHT22;29175;51.030;4.606;2022-07-09T00:45:50;19.40;99.90
43581;DHT22;29175;51.030;4.606;2022-07-09T00:48:17;19.40;99.90
43581;DHT22;29175;51.030;4.606;2022-07-09T00:50:44;19.30;99.90
43581;DHT22;29175;51.030;4.606;2022-07-09T00:53:16;19.40;99.90
43581;DHT22;29175;51.030;4.606;2022-07-09T00:55:43;19.40;99.90
43581;DHT22;29175;51.030;4.606;2022-07-09T00:58:16;19.50;99.90
43581;DHT22;29175;51.030;4.606;2022-07-09T01:00:43;19.50;99.90
43581;DHT22;29175;51.030;4.606;2022-07-09T01:03:12;19.40;99.90
43581;DHT22;29175;51.030;4.606;2022-07-09T01:05:40;19.30;99.90
43581;DHT22;29175;51.030;4.606;2022-07-09T01:08:07;19.30;99.90
43581;DHT22;29175;51.030;4.606;2022-07-09T01:10:35;19.30;99.90
43581;DHT22;29175;51.030;4.606;2022-07-09T01:13:03;19.20;99.90
43581;DHT22;29175;51.030;4.606;2022-07-09T01:15:29;19.20;99.90
43581;DHT22;29175;51.030;4.606;2022-07-09T01:17:58;19.20;99.90
43581;DHT22;29175;51.030;4.606;2022-07-09T01:20:29;19.10;99.90
43581;DHT22;29175;51.030;4.606;2022-07-09T01:22:56;19.10;99.90
43581;DHT22;29175;51.030;4.606;2022-07-09T01:25:33;18.90;99.90
43581;DHT22;29175;51.030;4.606;2022-07-09T01:28:02;18.90;99.90
43581;DHT22;29175;51.030;4.606;2022-07-09T01:30:33;18.80;99.90
43581;DHT22;29175;51.030;4.606;2022-07-09T01:33:02;18.80;99.90
43581;DHT22;29175;51.030;4.606;2022-07-09T01:35:29;18.80;99.90
43581;DHT22;29175;51.030;4.606;2022-07-09T01:37:54;18.70;99.90
43581;DHT22;29175;51.030;4.606;2022-07-09T01:40:24;18.80;99.90
43581;DHT22;29175;51.030;4.606;2022-07-09T01:42:56;18.80;99.90
43581;DHT22;29175;51.030;4.606;2022-07-09T01:45:23;18.80;99.90
43581;DHT22;29175;51.030;4.606;2022-07-09T01:47:52;18.70;99.90
43581;DHT22;29175;51.030;4.606;2022-07-09T01:50:19;18.60;99.90
43581;DHT22;29175;51.030;4.606;2022-07-09T01:52:46;18.60;99.90
43581;DHT22;29175;51.030;4.606;2022-07-09T01:55:14;18.60;99.90
43581;DHT22;29175;51.030;4.606;2022-07-09T01:57:41;18.60;99.90
43581;DHT22;29175;51.030;4.606;2022-07-09T02:00:07;18.70;99.90
43581;DHT22;29175;51.030;4.606;2022-07-09T02:02:33;18.70;99.90
43581;DHT22;29175;51.030;4.606;2022-07-09T02:04:59;18.60;99.90
43581;DHT22;29175;51.030;4.606;2022-07-09T02:07:24;18.60;99.90
43581;DHT22;29175;51.030;4.606;2022-07-09T02:09:53;18.50;99.90
43581;DHT22;29175;51.030;4.606;2022-07-09T02:12:22;18.40;99.90
43581;DHT22;29175;51.030;4.606;2022-07-09T02:14:50;18.30;99.90
43581;DHT22;29175;51.030;4.606;2022-07-09T02:17:18;18.40;99.90
43581;DHT22;29175;51.030;4.606;2022-07-09T02:19:44;18.40;99.90
43581;DHT22;29175;51.030;4.606;2022-07-09T02:22:11;18.40;99.90
43581;DHT22;29175;51.030;4.606;2022-07-09T02:24:39;18.40;99.90
43581;DHT22;29175;51.030;4.606;2022-07-09T02:27:05;18.30;99.90
43581;DHT22;29175;51.030;4.606;2022-07-09T02:29:32;18.20;99.90
43581;DHT22;29175;51.030;4.606;2022-07-09T02:32:00;18.20;99.90
43581;DHT22;29175;51.030;4.606;2022-07-09T02:34:29;18.10;99.90
43581;DHT22;29175;51.030;4.606;2022-07-09T02:36:56;18.10;99.90
43581;DHT22;29175;51.030;4.606;2022-07-09T02:39:25;18.10;99.90
43581;DHT22;29175;51.030;4.606;2022-07-09T02:41:54;18.00;99.90
43581;DHT22;29175;51.030;4.606;2022-07-09T02:44:20;18.00;99.90
43581;DHT22;29175;51.030;4.606;2022-07-09T02:46:48;18.10;99.90
43581;DHT22;29175;51.030;4.606;2022-07-09T02:49:18;18.00;99.90
43581;DHT22;29175;51.030;4.606;2022-07-09T02:51:44;17.90;99.90
43581;DHT22;29175;51.030;4.606;2022-07-09T02:54:12;18.00;99.90
43581;DHT22;29175;51.030;4.606;2022-07-09T02:56:39;17.90;99.90
43581;DHT22;29175;51.030;4.606;2022-07-09T02:59:08;17.90;99.90
43581;DHT22;29175;51.030;4.606;2022-07-09T03:01:35;17.90;99.90
43581;DHT22;29175;51.030;4.606;2022-07-09T03:04:01;17.90;99.90
43581;DHT22;29175;51.030;4.606;2022-07-09T03:06:27;18.00;99.90
43581;DHT22;29175;51.030;4.606;2022-07-09T03:08:57;18.00;99.90
43581;DHT22;29175;51.030;4.606;2022-07-09T03:11:25;18.00;99.90
43581;DHT22;29175;51.030;4.606;2022-07-09T03:13:51;18.00;99.90
43581;DHT22;29175;51.030;4.606;2022-07-09T03:16:18;17.90;99.90
43581;DHT22;29175;51.030;4.606;2022-07-09T03:18:47;17.90;99.90
43581;DHT22;29175;51.030;4.606;2022-07-09T03:21:13;17.90;99.90
43581;DHT22;29175;51.030;4.606;2022-07-09T03:23:39;17.90;99.90
43581;DHT22;29175;51.030;4.606;2022-07-09T03:26:05;18.00;99.90
43581;DHT22;29175;51.030;4.606;2022-07-09T03:28:37;18.00;99.90
43581;DHT22;29175;51.030;4.606;2022-07-09T03:31:03;18.10;99.90
43581;DHT22;29175;51.030;4.606;2022-07-09T03:33:30;18.10;99.90
43581;DHT22;29175;51.030;4.606;2022-07-09T03:35:59;18.10;99.90
43581;DHT22;29175;51.030;4.606;2022-07-09T03:38:35;18.10;99.90
43581;DHT22;29175;51.030;4.606;2022-07-09T03:41:06;18.10;99.90
43581;DHT22;29175;51.030;4.606;2022-07-09T03:43:33;18.20;99.90
43581;DHT22;29175;51.030;4.606;2022-07-09T03:46:00;18.20;99.90
43581;DHT22;29175;51.030;4.606;2022-07-09T03:48:29;18.20;99.90
43581;DHT22;29175;51.030;4.606;2022-07-09T03:50:56;18.20;99.90
43581;DHT22;29175;51.030;4.606;2022-07-09T03:53:22;18.30;99.90
43581;DHT22;29175;51.030;4.606;2022-07-09T03:55:50;18.40;99.90
43581;DHT22;29175;51.030;4.606;2022-07-09T03:58:15;18.50;99.90
43581;DHT22;29175;51.030;4.606;2022-07-09T04:00:41;18.40;99.90
43581;DHT22;29175;51.030;4.606;2022-07-09T04:03:07;18.50;99.90
43581;DHT22;29175;51.030;4.606;2022-07-09T04:05:35;18.40;99.90
43581;DHT22;29175;51.030;4.606;2022-07-09T04:08:00;18.40;99.90
43581;DHT22;29175;51.030;4.606;2022-07-09T04:10:27;18.50;99.90
43581;DHT22;29175;51.030;4.606;2022-07-09T04:12:53;18.50;99.90
43581;DHT22;29175;51.030;4.606;2022-07-09T04:15:21;18.50;99.90
43581;DHT22;29175;51.030;4.606;2022-07-09T04:17:47;18.50;99.90
43581;DHT22;29175;51.030;4.606;2022-07-09T04:20:14;18.50;99.90
43581;DHT22;29175;51.030;4.606;2022-07-09T04:22:42;18.50;99.90
43581;DHT22;29175;51.030;4.606;2022-07-09T04:25:08;18.50;99.90
43581;DHT22;29175;51.030;4.606;2022-07-09T04:27:34;18.40;99.90
43581;DHT22;29175;51.030;4.606;2022-07-09T04:30:01;18.50;99.90
43581;DHT22;29175;51.030;4.606;2022-07-09T04:32:27;18.50;99.90
43581;DHT22;29175;51.030;4.606;2022-07-09T04:34:54;18.60;99.90
43581;DHT22;29175;51.030;4.606;2022-07-09T04:37:19;18.70;99.90
43581;DHT22;29175;51.030;4.606;2022-07-09T04:39:45;18.80;99.90
43581;DHT22;29175;51.030;4.606;2022-07-09T04:42:11;18.90;99.90
43581;DHT22;29175;51.030;4.606;2022-07-09T04:44:41;18.90;99.90
43581;DHT22;29175;51.030;4.606;2022-07-09T04:47:09;19.00;99.90
43581;DHT22;29175;51.030;4.606;2022-07-09T04:49:36;19.00;99.90
43581;DHT22;29175;51.030;4.606;2022-07-09T04:52:02;19.10;99.90
43581;DHT22;29175;51.030;4.606;2022-07-09T04:54:30;19.20;99.90
43581;DHT22;29175;51.030;4.606;2022-07-09T04:56:56;19.30;99.90
43581;DHT22;29175;51.030;4.606;2022-07-09T04:59:22;19.40;99.90
43581;DHT22;29175;51.030;4.606;2022-07-09T05:01:48;19.50;99.90
43581;DHT22;29175;51.030;4.606;2022-07-09T05:04:15;19.50;99.90
43581;DHT22;29175;51.030;4.606;2022-07-09T05:06:42;19.60;99.90
43581;DHT22;29175;51.030;4.606;2022-07-09T05:09:09;19.70;99.90
43581;DHT22;29175;51.030;4.606;2022-07-09T05:11:35;19.70;99.90
43581;DHT22;29175;51.030;4.606;2022-07-09T05:14:02;19.80;99.90
43581;DHT22;29175;51.030;4.606;2022-07-09T05:16:27;20.00;99.90
43581;DHT22;29175;51.030;4.606;2022-07-09T05:18:53;20.60;99.90
43581;DHT22;29175;51.030;4.606;2022-07-09T05:21:20;20.90;99.90
43581;DHT22;29175;51.030;4.606;2022-07-09T05:23:46;20.90;99.90
43581;DHT22;29175;51.030;4.606;2022-07-09T05:26:11;20.90;99.90
43581;DHT22;29175;51.030;4.606;2022-07-09T05:28:38;20.90;99.90
43581;DHT22;29175;51.030;4.606;2022-07-09T05:31:04;20.80;99.90
43581;DHT22;29175;51.030;4.606;2022-07-09T05:33:30;20.80;99.90
43581;DHT22;29175;51.030;4.606;2022-07-09T05:35:55;20.80;99.90
43581;DHT22;29175;51.030;4.606;2022-07-09T05:38:23;20.80;99.90
43581;DHT22;29175;51.030;4.606;2022-07-09T05:40:49;20.90;99.90
43581;DHT22;29175;51.030;4.606;2022-07-09T05:43:16;21.10;99.90
43581;DHT22;29175;51.030;4.606;2022-07-09T05:45:42;21.30;99.90
43581;DHT22;29175;51.030;4.606;2022-07-09T05:48:08;21.50;99.90
43581;DHT22;29175;51.030;4.606;2022-07-09T05:50:34;21.70;99.90
43581;DHT22;29175;51.030;4.606;2022-07-09T05:53:00;21.90;99.90
43581;DHT22;29175;51.030;4.606;2022-07-09T05:55:26;22.00;99.90
43581;DHT22;29175;51.030;4.606;2022-07-09T05:57:53;22.00;99.90
43581;DHT22;29175;51.030;4.606;2022-07-09T06:00:20;21.90;99.90
43581;DHT22;29175;51.030;4.606;2022-07-09T06:02:46;22.00;99.90
43581;DHT22;29175;51.030;4.606;2022-07-09T06:05:12;22.00;99.90
43581;DHT22;29175;51.030;4.606;2022-07-09T06:07:38;22.10;99.90
43581;DHT22;29175;51.030;4.606;2022-07-09T06:10:11;22.30;99.90
43581;DHT22;29175;51.030;4.606;2022-07-09T06:12:39;22.60;99.90
43581;DHT22;29175;51.030;4.606;2022-07-09T06:15:06;22.90;99.90
43581;DHT22;29175;51.030;4.606;2022-07-09T06:17:31;23.10;99.90
43581;DHT22;29175;51.030;4.606;2022-07-09T06:19:58;23.20;99.90
43581;DHT22;29175;51.030;4.606;2022-07-09T06:22:27;23.20;99.90
43581;DHT22;29175;51.030;4.606;2022-07-09T06:24:54;23.10;99.90
43581;DHT22;29175;51.030;4.606;2022-07-09T06:27:21;23.10;99.90
43581;DHT22;29175;51.030;4.606;2022-07-09T06:29:49;23.10;99.90
43581;DHT22;29175;51.030;4.606;2022-07-09T06:32:15;23.20;99.90
43581;DHT22;29175;51.030;4.606;2022-07-09T06:34:41;23.30;99.90
43581;DHT22;29175;51.030;4.606;2022-07-09T06:37:08;23.50;99.90
43581;DHT22;29175;51.030;4.606;2022-07-09T06:39:34;23.70;99.70
43581;DHT22;29175;51.030;4.606;2022-07-09T06:42:14;23.50;99.90
43581;DHT22;29175;51.030;4.606;2022-07-09T06:44:43;24.00;99.40
43581;DHT22;29175;51.030;4.606;2022-07-09T06:47:10;24.90;98.70
43581;DHT22;29175;51.030;4.606;2022-07-09T06:49:38;25.80;96.60
43581;DHT22;29175;51.030;4.606;2022-07-09T06:52:05;26.20;95.20
43581;DHT22;29175;51.030;4.606;2022-07-09T06:54:31;25.90;94.70
43581;DHT22;29175;51.030;4.606;2022-07-09T06:56:57;25.40;95.00
43581;DHT22;29175;51.030;4.606;2022-07-09T06:59:24;25.50;95.30
43581;DHT22;29175;51.030;4.606;2022-07-09T07:01:51;25.40;95.40
43581;DHT22;29175;51.030;4.606;2022-07-09T07:04:19;25.60;95.10
43581;DHT22;29175;51.030;4.606;2022-07-09T07:06:46;25.70;95.60
43581;DHT22;29175;51.030;4.606;2022-07-09T07:09:16;26.40;94.70
43581;DHT22;29175;51.030;4.606;2022-07-09T07:11:45;26.30;93.80
43581;DHT22;29175;51.030;4.606;2022-07-09T07:14:12;25.90;94.10
43581;DHT22;29175;51.030;4.606;2022-07-09T07:16:41;25.60;94.30
43581;DHT22;29175;51.030;4.606;2022-07-09T07:19:08;25.40;94.70
43581;DHT22;29175;51.030;4.606;2022-07-09T07:21:37;25.60;94.30
43581;DHT22;29175;51.030;4.606;2022-07-09T07:24:09;25.40;95.20
43581;DHT22;29175;51.030;4.606;2022-07-09T07:26:35;25.70;94.50
43581;DHT22;29175;51.030;4.606;2022-07-09T07:29:01;25.60;94.40
43581;DHT22;29175;51.030;4.606;2022-07-09T07:31:28;25.60;94.00
43581;DHT22;29175;51.030;4.606;2022-07-09T07:33:57;25.30;94.50
43581;DHT22;29175;51.030;4.606;2022-07-09T07:36:26;25.00;94.60
43581;DHT22;29175;51.030;4.606;2022-07-09T07:38:53;25.00;94.60
43581;DHT22;29175;51.030;4.606;2022-07-09T07:41:20;25.10;94.50
43581;DHT22;29175;51.030;4.606;2022-07-09T07:43:47;24.80;94.50
43581;DHT22;29175;51.030;4.606;2022-07-09T07:46:15;25.30;95.40
43581;DHT22;29175;51.030;4.606;2022-07-09T07:48:41;25.60;94.70
43581;DHT22;29175;51.030;4.606;2022-07-09T07:51:09;25.80;93.40
43581;DHT22;29175;51.030;4.606;2022-07-09T07:53:35;26.90;93.90
43581;DHT22;29175;51.030;4.606;2022-07-09T07:56:05;27.90;91.70
43581;DHT22;29175;51.030;4.606;2022-07-09T07:58:31;28.10;90.60
43581;DHT22;29175;51.030;4.606;2022-07-09T08:00:58;29.20;90.70
43581;DHT22;29175;51.030;4.606;2022-07-09T08:03:25;29.50;90.20
43581;DHT22;29175;51.030;4.606;2022-07-09T08:05:53;30.30;89.20
43581;DHT22;29175;51.030;4.606;2022-07-09T08:08:21;30.80;86.40
43581;DHT22;29175;51.030;4.606;2022-07-09T08:10:47;31.30;86.40
43581;DHT22;29175;51.030;4.606;2022-07-09T08:13:15;31.70;86.60
43581;DHT22;29175;51.030;4.606;2022-07-09T08:15:43;32.60;83.20
43581;DHT22;29175;51.030;4.606;2022-07-09T08:18:10;33.40;82.60
43581;DHT22;29175;51.030;4.606;2022-07-09T08:20:40;32.70;81.40
43581;DHT22;29175;51.030;4.606;2022-07-09T08:23:06;32.50;83.20
43581;DHT22;29175;51.030;4.606;2022-07-09T08:25:34;32.70;82.90
43581;DHT22;29175;51.030;4.606;2022-07-09T08:28:00;33.10;81.70
43581;DHT22;29175;51.030;4.606;2022-07-09T08:30:27;33.70;80.90
43581;DHT22;29175;51.030;4.606;2022-07-09T08:32:54;35.20;79.80
43581;DHT22;29175;51.030;4.606;2022-07-09T08:35:21;35.30;78.50
43581;DHT22;29175;51.030;4.606;2022-07-09T08:37:48;35.20;77.00
43581;DHT22;29175;51.030;4.606;2022-07-09T08:40:14;35.20;78.60
43581;DHT22;29175;51.030;4.606;2022-07-09T08:42:40;34.70;79.20
43581;DHT22;29175;51.030;4.606;2022-07-09T08:45:08;34.50;79.80
43581;DHT22;29175;51.030;4.606;2022-07-09T08:47:36;34.10;80.40
43581;DHT22;29175;51.030;4.606;2022-07-09T08:50:04;33.90;81.00
43581;DHT22;29175;51.030;4.606;2022-07-09T08:52:29;32.60;82.30
43581;DHT22;29175;51.030;4.606;2022-07-09T08:54:56;31.70;84.00
43581;DHT22;29175;51.030;4.606;2022-07-09T08:57:24;31.50;84.40
43581;DHT22;29175;51.030;4.606;2022-07-09T08:59:53;31.50;84.70
43581;DHT22;29175;51.030;4.606;2022-07-09T09:02:20;31.10;84.90
43581;DHT22;29175;51.030;4.606;2022-07-09T09:04:46;31.30;86.70
43581;DHT22;29175;51.030;4.606;2022-07-09T09:07:15;32.50;83.60
43581;DHT22;29175;51.030;4.606;2022-07-09T09:09:42;33.20;81.50
43581;DHT22;29175;51.030;4.606;2022-07-09T09:12:09;34.00;81.60
43581;DHT22;29175;51.030;4.606;2022-07-09T09:14:35;34.80;79.60
43581;DHT22;29175;51.030;4.606;2022-07-09T09:17:08;35.40;78.80
43581;DHT22;29175;51.030;4.606;2022-07-09T09:19:41;35.70;78.60
43581;DHT22;29175;51.030;4.606;2022-07-09T09:22:07;35.10;79.00
43581;DHT22;29175;51.030;4.606;2022-07-09T09:24:35;36.80;78.50
43581;DHT22;29175;51.030;4.606;2022-07-09T09:27:02;36.10;77.50
43581;DHT22;29175;51.030;4.606;2022-07-09T09:29:28;36.10;75.90
43581;DHT22;29175;51.030;4.606;2022-07-09T09:31:55;35.80;76.80
43581;DHT22;29175;51.030;4.606;2022-07-09T09:34:22;35.50;76.90
43581;DHT22;29175;51.030;4.606;2022-07-09T09:36:50;36.20;78.70
43581;DHT22;29175;51.030;4.606;2022-07-09T09:39:24;37.10;75.60
43581;DHT22;29175;51.030;4.606;2022-07-09T09:41:56;38.10;74.80
43581;DHT22;29175;51.030;4.606;2022-07-09T09:44:27;36.80;74.90
43581;DHT22;29175;51.030;4.606;2022-07-09T09:46:57;35.50;77.00
43581;DHT22;29175;51.030;4.606;2022-07-09T09:49:24;34.60;77.80
43581;DHT22;29175;51.030;4.606;2022-07-09T09:52:07;33.00;79.60
43581;DHT22;29175;51.030;4.606;2022-07-09T09:54:40;32.40;82.20
43581;DHT22;29175;51.030;4.606;2022-07-09T09:57:13;31.80;83.00
43581;DHT22;29175;51.030;4.606;2022-07-09T09:59:41;32.00;82.70
43581;DHT22;29175;51.030;4.606;2022-07-09T10:02:09;31.10;84.10
43581;DHT22;29175;51.030;4.606;2022-07-09T10:04:42;30.70;85.90
43581;DHT22;29175;51.030;4.606;2022-07-09T10:07:15;29.70;87.60
43581;DHT22;29175;51.030;4.606;2022-07-09T10:10:04;29.40;89.30
43581;DHT22;29175;51.030;4.606;2022-07-09T10:12:33;30.00;90.00
43581;DHT22;29175;51.030;4.606;2022-07-09T10:15:00;30.20;88.40
43581;DHT22;29175;51.030;4.606;2022-07-09T10:17:27;30.10;89.90
43581;DHT22;29175;51.030;4.606;2022-07-09T10:20:04;30.80;90.00
43581;DHT22;29175;51.030;4.606;2022-07-09T10:22:44;31.60;87.80
43581;DHT22;29175;51.030;4.606;2022-07-09T10:25:13;32.10;87.00
43581;DHT22;29175;51.030;4.606;2022-07-09T10:27:48;32.40;86.70
43581;DHT22;29175;51.030;4.606;2022-07-09T10:35:30;31.60;87.30
43581;DHT22;29175;51.030;4.606;2022-07-09T10:37:56;32.00;85.90
43581;DHT22;29175;51.030;4.606;2022-07-09T10:40:23;32.10;84.40
43581;DHT22;29175;51.030;4.606;2022-07-09T10:43:02;31.30;85.80
43581;DHT22;29175;51.030;4.606;2022-07-09T10:45:45;31.50;86.10
43581;DHT22;29175;51.030;4.606;2022-07-09T10:48:14;31.20;84.50
43581;DHT22;29175;51.030;4.606;2022-07-09T10:50:45;31.20;87.30
43581;DHT22;29175;51.030;4.606;2022-07-09T10:53:16;31.20;86.30
43581;DHT22;29175;51.030;4.606;2022-07-09T10:55:43;31.60;84.70
43581;DHT22;29175;51.030;4.606;2022-07-09T10:58:22;31.60;85.00
43581;DHT22;29175;51.030;4.606;2022-07-09T11:01:01;32.40;84.80
43581;DHT22;29175;51.030;4.606;2022-07-09T11:03:30;32.70;81.80
43581;DHT22;29175;51.030;4.606;2022-07-09T11:06:07;32.80;81.10
43581;DHT22;29175;51.030;4.606;2022-07-09T11:08:36;32.50;82.50
43581;DHT22;29175;51.030;4.606;2022-07-09T11:11:02;32.20;81.50
43581;DHT22;29175;51.030;4.606;2022-07-09T11:13:28;31.10;84.20
43581;DHT22;29175;51.030;4.606;2022-07-09T11:16:00;30.80;84.40
43581;DHT22;29175;51.030;4.606;2022-07-09T11:18:29;30.10;86.20
43581;DHT22;29175;51.030;4.606;2022-07-09T11:20:57;30.00;85.60
43581;DHT22;29175;51.030;4.606;2022-07-09T11:23:23;30.40;84.80
43581;DHT22;29175;51.030;4.606;2022-07-09T11:25:51;30.70;84.90
43581;DHT22;29175;51.030;4.606;2022-07-09T11:28:23;30.70;84.00
43581;DHT22;29175;51.030;4.606;2022-07-09T11:31:04;30.60;85.20
43581;DHT22;29175;51.030;4.606;2022-07-09T11:33:32;30.10;83.70
43581;DHT22;29175;51.030;4.606;2022-07-09T11:36:18;29.60;85.20
43581;DHT22;29175;51.030;4.606;2022-07-09T11:38:52;29.60;85.30
43581;DHT22;29175;51.030;4.606;2022-07-09T11:41:19;28.90;86.00
43581;DHT22;29175;51.030;4.606;2022-07-09T11:43:49;28.80;85.60
43581;DHT22;29175;51.030;4.606;2022-07-09T11:46:20;29.30;84.70
43581;DHT22;29175;51.030;4.606;2022-07-09T11:48:54;29.60;83.90
43581;DHT22;29175;51.030;4.606;2022-07-09T11:51:47;29.60;84.60
43581;DHT22;29175;51.030;4.606;2022-07-09T11:54:26;29.80;85.40
43581;DHT22;29175;51.030;4.606;2022-07-09T11:56:53;30.90;83.40
43581;DHT22;29175;51.030;4.606;2022-07-09T11:59:29;30.60;82.50
43581;DHT22;29175;51.030;4.606;2022-07-09T12:02:00;31.20;82.50
43581;DHT22;29175;51.030;4.606;2022-07-09T12:04:30;29.50;84.10
43581;DHT22;29175;51.030;4.606;2022-07-09T12:06:59;29.20;84.90
43581;DHT22;29175;51.030;4.606;2022-07-09T12:09:31;30.10;83.30
43581;DHT22;29175;51.030;4.606;2022-07-09T12:11:59;30.90;82.30
43581;DHT22;29175;51.030;4.606;2022-07-09T12:14:26;30.10;83.80
43581;DHT22;29175;51.030;4.606;2022-07-09T12:16:54;29.10;84.40
43581;DHT22;29175;51.030;4.606;2022-07-09T12:19:20;28.70;84.80
43581;DHT22;29175;51.030;4.606;2022-07-09T12:21:47;27.90;86.50
43581;DHT22;29175;51.030;4.606;2022-07-09T12:24:13;27.60;88.00
43581;DHT22;29175;51.030;4.606;2022-07-09T12:26:38;27.70;87.10
43581;DHT22;29175;51.030;4.606;2022-07-09T12:29:04;27.50;86.70
43581;DHT22;29175;51.030;4.606;2022-07-09T12:31:31;27.30;88.30
43581;DHT22;29175;51.030;4.606;2022-07-09T12:33:58;27.20;88.60
43581;DHT22;29175;51.030;4.606;2022-07-09T12:36:26;28.00;87.80
43581;DHT22;29175;51.030;4.606;2022-07-09T12:38:52;27.60;87.90
43581;DHT22;29175;51.030;4.606;2022-07-09T12:41:19;26.90;89.10
43581;DHT22;29175;51.030;4.606;2022-07-09T12:43:46;26.50;89.30
43581;DHT22;29175;51.030;4.606;2022-07-09T12:46:17;26.20;89.90
43581;DHT22;29175;51.030;4.606;2022-07-09T12:48:43;25.90;90.40
43581;DHT22;29175;51.030;4.606;2022-07-09T12:51:09;25.80;89.60
43581;DHT22;29175;51.030;4.606;2022-07-09T12:53:36;26.00;89.30
43581;DHT22;29175;51.030;4.606;2022-07-09T12:56:02;26.10;88.60
43581;DHT22;29175;51.030;4.606;2022-07-09T12:58:29;26.10;89.70
43581;DHT22;29175;51.030;4.606;2022-07-09T13:00:54;26.70;87.10
43581;DHT22;29175;51.030;4.606;2022-07-09T13:03:21;26.60;87.10
43581;DHT22;29175;51.030;4.606;2022-07-09T13:05:48;26.10;88.10
43581;DHT22;29175;51.030;4.606;2022-07-09T13:08:15;26.00;87.90
43581;DHT22;29175;51.030;4.606;2022-07-09T13:10:42;26.10;87.80
43581;DHT22;29175;51.030;4.606;2022-07-09T13:13:08;26.60;86.80
43581;DHT22;29175;51.030;4.606;2022-07-09T13:15:37;26.40;85.10
43581;DHT22;29175;51.030;4.606;2022-07-09T13:18:02;26.30;87.00
43581;DHT22;29175;51.030;4.606;2022-07-09T13:20:29;26.20;86.60
43581;DHT22;29175;51.030;4.606;2022-07-09T13:22:56;26.40;86.80
43581;DHT22;29175;51.030;4.606;2022-07-09T13:25:22;26.40;86.70
43581;DHT22;29175;51.030;4.606;2022-07-09T13:27:48;26.10;87.00
43581;DHT22;29175;51.030;4.606;2022-07-09T13:30:17;26.60;87.80
43581;DHT22;29175;51.030;4.606;2022-07-09T13:32:47;26.20;85.50
43581;DHT22;29175;51.030;4.606;2022-07-09T13:35:14;25.60;86.10
43581;DHT22;29175;51.030;4.606;2022-07-09T13:37:41;25.20;86.40
43581;DHT22;29175;51.030;4.606;2022-07-09T13:40:07;25.00;88.10
43581;DHT22;29175;51.030;4.606;2022-07-09T13:42:34;25.30;87.10
43581;DHT22;29175;51.030;4.606;2022-07-09T13:45:00;25.80;86.40
43581;DHT22;29175;51.030;4.606;2022-07-09T13:47:26;25.60;86.60
43581;DHT22;29175;51.030;4.606;2022-07-09T13:49:54;25.30;86.70
43581;DHT22;29175;51.030;4.606;2022-07-09T13:52:24;25.30;88.00
43581;DHT22;29175;51.030;4.606;2022-07-09T13:54:50;25.60;88.40
43581;DHT22;29175;51.030;4.606;2022-07-09T13:57:17;26.10;88.30
43581;DHT22;29175;51.030;4.606;2022-07-09T13:59:44;26.00;86.70
43581;DHT22;29175;51.030;4.606;2022-07-09T14:02:11;25.50;87.00
43581;DHT22;29175;51.030;4.606;2022-07-09T14:04:38;24.90;88.90
43581;DHT22;29175;51.030;4.606;2022-07-09T14:07:03;25.10;87.80
43581;DHT22;29175;51.030;4.606;2022-07-09T14:09:31;25.00;87.80
43581;DHT22;29175;51.030;4.606;2022-07-09T14:11:56;24.80;87.80
43581;DHT22;29175;51.030;4.606;2022-07-09T14:14:22;24.70;88.40
43581;DHT22;29175;51.030;4.606;2022-07-09T14:16:50;24.80;87.90
43581;DHT22;29175;51.030;4.606;2022-07-09T14:19:16;24.50;87.80
43581;DHT22;29175;51.030;4.606;2022-07-09T14:21:41;24.30;88.90
43581;DHT22;29175;51.030;4.606;2022-07-09T14:24:09;24.10;90.20
43581;DHT22;29175;51.030;4.606;2022-07-09T14:26:35;24.20;88.90
43581;DHT22;29175;51.030;4.606;2022-07-09T14:29:02;24.20;88.10
43581;DHT22;29175;51.030;4.606;2022-07-09T14:31:30;24.50;88.80
43581;DHT22;29175;51.030;4.606;2022-07-09T14:33:57;24.40;89.10
43581;DHT22;29175;51.030;4.606;2022-07-09T14:36:23;24.10;87.80
43581;DHT22;29175;51.030;4.606;2022-07-09T14:38:50;24.00;90.00
43581;DHT22;29175;51.030;4.606;2022-07-09T14:41:17;24.20;88.40
43581;DHT22;29175;51.030;4.606;2022-07-09T14:43:48;24.10;88.60
43581;DHT22;29175;51.030;4.606;2022-07-09T14:46:16;24.10;88.00
43581;DHT22;29175;51.030;4.606;2022-07-09T14:48:43;24.10;87.60
43581;DHT22;29175;51.030;4.606;2022-07-09T14:51:09;24.20;86.80
43581;DHT22;29175;51.030;4.606;2022-07-09T14:53:36;24.90;87.50
43581;DHT22;29175;51.030;4.606;2022-07-09T14:56:03;25.00;84.20
43581;DHT22;29175;51.030;4.606;2022-07-09T14:58:29;24.50;85.50
43581;DHT22;29175;51.030;4.606;2022-07-09T15:00:57;24.60;86.50
43581;DHT22;29175;51.030;4.606;2022-07-09T15:03:24;24.80;85.90
43581;DHT22;29175;51.030;4.606;2022-07-09T15:05:51;24.70;86.20
43581;DHT22;29175;51.030;4.606;2022-07-09T15:08:18;24.60;85.80
43581;DHT22;29175;51.030;4.606;2022-07-09T15:10:44;24.10;85.60
43581;DHT22;29175;51.030;4.606;2022-07-09T15:13:11;24.30;85.80
43581;DHT22;29175;51.030;4.606;2022-07-09T15:15:39;24.60;86.90
43581;DHT22;29175;51.030;4.606;2022-07-09T15:18:06;25.00;85.60
43581;DHT22;29175;51.030;4.606;2022-07-09T15:20:33;24.90;84.90
43581;DHT22;29175;51.030;4.606;2022-07-09T15:23:00;24.70;85.50
43581;DHT22;29175;51.030;4.606;2022-07-09T15:25:27;24.70;85.70
43581;DHT22;29175;51.030;4.606;2022-07-09T15:27:57;25.00;85.60
43581;DHT22;29175;51.030;4.606;2022-07-09T15:30:24;25.00;85.20
43581;DHT22;29175;51.030;4.606;2022-07-09T15:32:52;25.10;85.70
43581;DHT22;29175;51.030;4.606;2022-07-09T15:35:17;24.70;84.50
43581;DHT22;29175;51.030;4.606;2022-07-09T15:37:44;24.60;85.70
43581;DHT22;29175;51.030;4.606;2022-07-09T15:40:11;24.10;86.50